Terminal Aerodrome Forecast
Issued by NWS Knoxville/Tri Cities, TN

Home | Current Version | Previous Version | Text Only | Print | Product List | Glossary On
Versions: 1 2 3 4 5 6 7 8 9 10 11 12 13 14 15 16 17 18 19 20 21 22 23 24 25 26 27 28 29 30
000
FTUS44 KMRX 300531
TAFTRI
TAF
KTRI 300531Z 3006/3106 19006KT P6SM SCT050 BKN120
     FM300800 21006KT 6SM -SHRA BR OVC050
      TEMPO 3008/3010 4SM -SHRA BR SCT015 OVC030
     FM301200 28006KT P6SM OVC025
     FM301400 27008KT P6SM BKN035
     FM301700 27011KT P6SM SKC
     FM310000 00000KT P6SM SCT250=

USA.gov is the U.S. government's official web portal to all federal, state and local government web resources and services.